Terminal Aerodrome Forecast
Issued by NWS

Home | Current Version | Previous Version | Text Only | Print | Product List | Glossary On
Versions: 1 2 3 4 5 6 7 8 9 10 11 12 13 14 15
000
FTAK31 PAJN 301100
TAFAWG
TAF
PAWG 301123Z 3012/3112 00000KT P6SM BCFG VCSH SCT005 BKN040
      TEMPO 3012/3016 4SM BR BKN009 BKN040
     FM301800 VRB03KT P6SM SCT030 BKN060
     FM302100 29005KT P6SM SCT050 BKN100
     FM310800 31006KT P6SM VCFG SCT005 BKN100
      AMD LTD TO CLD VIS AND WIND 3012/3015=

USA.gov is the U.S. government's official web portal to all federal, state and local government web resources and services.